Time;durP1;ratioP1;P1;durP2;ratioP2;P2;SDS_P1;SDS_P2;PMS_P1;PMS_P2;Temp;Humidity;BMP_temperature;BMP_pressure;BME280_temperature;BME280_humidity;BME280_pressure;Samples;Min_cycle;Max_cycle;Signal;HPM_P1;HPM_P2
2020/12/31 00:00:22;;;;;;;6.45;3.38;;;3.40;99.90;;;;;;5070641;28;20223;-60
2020/12/31 00:02:49;;;;;;;6.10;3.80;;;3.40;99.90;;;;;;5071189;28;20199;-63
2020/12/31 00:05:17;;;;;;;5.07;4.60;;;3.30;99.90;;;;;;5053382;28;20195;-63
2020/12/31 00:07:44;;;;;;;9.38;5.47;;;3.30;99.90;;;;;;5071324;28;20177;-61
2020/12/31 00:10:11;;;;;;;8.48;4.88;;;3.20;99.90;;;;;;5071069;28;20208;-62
2020/12/31 00:12:39;;;;;;;7.47;4.32;;;3.20;99.90;;;;;;5070869;28;20211;-63
2020/12/31 00:15:06;;;;;;;6.85;4.30;;;3.00;99.90;;;;;;5071325;28;20391;-61
2020/12/31 00:17:34;;;;;;;8.80;6.88;;;3.00;99.90;;;;;;5071195;28;20176;-61
2020/12/31 00:20:01;;;;;;;4.05;3.65;;;3.00;99.90;;;;;;5070875;28;20680;-57
2020/12/31 00:22:28;;;;;;;6.18;5.68;;;3.10;99.90;;;;;;5053112;28;20203;-62
2020/12/31 00:24:55;;;;;;;5.22;3.40;;;3.10;99.90;;;;;;5071170;28;20173;-58
2020/12/31 00:27:22;;;;;;;7.47;4.30;;;3.20;99.90;;;;;;5052944;28;20234;-63
2020/12/31 00:29:50;;;;;;;5.50;4.78;;;3.30;99.90;;;;;;5070993;28;20216;-64
2020/12/31 00:32:17;;;;;;;6.50;5.15;;;3.30;99.90;;;;;;5070752;28;20177;-61
2020/12/31 00:34:44;;;;;;;7.68;6.25;;;3.40;99.90;;;;;;5070989;28;20204;-62
2020/12/31 00:37:11;;;;;;;5.93;3.75;;;3.40;99.90;;;;;;5070860;28;20196;-61
2020/12/31 00:39:38;;;;;;;3.78;3.30;;;3.40;99.90;;;;;;5052702;28;20238;-59
2020/12/31 00:42:06;;;;;;;4.70;4.00;;;3.40;99.90;;;;;;5071007;28;20176;-62
2020/12/31 00:44:34;;;;;;;8.05;4.03;;;3.40;99.90;;;;;;5071194;28;20192;-65
2020/12/31 00:47:02;;;;;;;4.97;3.35;;;3.40;99.90;;;;;;5053158;28;20176;-63
2020/12/31 00:49:30;;;;;;;5.05;3.80;;;3.40;99.90;;;;;;5052675;28;20260;-63
2020/12/31 00:51:57;;;;;;;4.25;3.60;;;3.40;99.90;;;;;;5052392;28;20180;-63
2020/12/31 00:54:24;;;;;;;3.80;3.25;;;3.30;99.90;;;;;;5052138;28;20610;-60
2020/12/31 00:56:52;;;;;;;5.53;3.92;;;3.40;99.90;;;;;;5052469;28;20207;-63
2020/12/31 00:59:19;;;;;;;8.13;4.00;;;3.40;99.90;;;;;;5069903;28;20295;-63
2020/12/31 01:01:46;;;;;;;6.50;4.63;;;3.30;99.90;;;;;;5052115;28;20668;-62
2020/12/31 01:04:14;;;;;;;4.97;3.25;;;3.30;99.90;;;;;;5052374;28;20599;-61
2020/12/31 01:06:41;;;;;;;4.70;3.45;;;3.30;99.90;;;;;;5070346;28;20176;-60
2020/12/31 01:09:10;;;;;;;6.82;3.83;;;3.30;99.90;;;;;;5070279;28;20196;-62
2020/12/31 01:11:38;;;;;;;4.72;3.90;;;3.30;99.90;;;;;;5052640;28;20203;-62
2020/12/31 01:14:05;;;;;;;9.98;4.05;;;3.20;99.90;;;;;;5070620;28;20656;-61
2020/12/31 01:16:34;;;;;;;3.55;3.25;;;3.20;99.90;;;;;;5070554;28;20200;-61
2020/12/31 01:19:01;;;;;;;4.70;3.10;;;3.30;99.90;;;;;;5070027;28;20230;-63
2020/12/31 01:21:29;;;;;;;7.45;4.97;;;3.30;99.90;;;;;;5070133;28;20696;-63
2020/12/31 01:23:56;;;;;;;6.60;3.75;;;3.30;99.90;;;;;;5070371;28;20168;-63
2020/12/31 01:26:31;;;;;;;3.78;3.58;;;3.30;99.90;;;;;;5070307;28;20257;-63
2020/12/31 01:28:59;;;;;;;5.10;4.07;;;3.30;99.90;;;;;;5070142;28;20183;-62
2020/12/31 01:31:26;;;;;;;4.85;3.10;;;3.30;99.90;;;;;;5070191;28;20176;-62
2020/12/31 01:33:54;;;;;;;4.85;4.00;;;3.40;99.90;;;;;;5070483;28;20196;-63
2020/12/31 01:36:21;;;;;;;4.97;3.22;;;3.30;99.90;;;;;;5070639;28;20177;-60
2020/12/31 01:38:49;;;;;;;3.85;2.90;;;3.30;99.90;;;;;;5070440;28;20234;-63
2020/12/31 01:41:22;;;;;;;5.90;3.30;;;3.30;99.90;;;;;;5069870;28;20219;-61
2020/12/31 01:44:04;;;;;;;6.95;4.35;;;3.30;99.90;;;;;;5070393;28;20188;-62
2020/12/31 01:46:33;;;;;;;6.68;4.43;;;3.30;99.90;;;;;;5070419;28;20637;-61
2020/12/31 01:49:01;;;;;;;7.93;4.38;;;3.30;99.90;;;;;;5070265;28;20180;-62
2020/12/31 01:51:29;;;;;;;5.20;4.70;;;3.40;99.90;;;;;;5052448;28;20562;-62
2020/12/31 01:53:58;;;;;;;6.20;4.00;;;3.40;99.90;;;;;;5070414;28;20459;-61
2020/12/31 01:56:28;;;;;;;8.95;5.47;;;3.40;99.90;;;;;;5070956;28;20222;-59
2020/12/31 01:58:56;;;;;;;5.88;3.70;;;3.40;99.90;;;;;;5069752;28;20183;-62
2020/12/31 02:01:23;;;;;;;8.63;5.82;;;3.40;99.90;;;;;;5069605;28;20192;-63
2020/12/31 02:03:51;;;;;;;6.00;4.78;;;3.40;99.90;;;;;;5069918;28;20549;-61
2020/12/31 02:06:20;;;;;;;10.00;6.25;;;3.40;99.90;;;;;;5062165;28;20643;-62
2020/12/31 02:08:48;;;;;;;7.53;5.10;;;3.50;99.90;;;;;;5090085;28;20617;-63
2020/12/31 02:11:18;;;;;;;8.40;5.35;;;3.50;99.90;;;;;;5089654;28;20210;-61
2020/12/31 02:13:46;;;;;;;7.32;5.68;;;3.40;99.90;;;;;;5091675;28;20234;-63
2020/12/31 02:16:15;;;;;;;4.88;4.38;;;3.50;99.90;;;;;;5098844;22;20696;-57
2020/12/31 02:18:50;;;;;;;6.68;4.45;;;3.50;99.90;;;;;;5073712;28;20185;-56
2020/12/31 02:21:18;;;;;;;6.65;5.35;;;3.50;99.90;;;;;;5093406;28;20277;-56
2020/12/31 02:23:48;;;;;;;7.05;4.68;;;3.50;99.90;;;;;;5093872;28;20713;-57
2020/12/31 02:26:16;;;;;;;7.35;5.40;;;3.40;99.90;;;;;;5093925;28;20179;-59
2020/12/31 02:28:43;;;;;;;6.20;4.95;;;3.50;99.90;;;;;;5093611;28;20205;-59
2020/12/31 02:31:10;;;;;;;8.45;4.93;;;3.50;99.90;;;;;;5077009;28;20583;-60
2020/12/31 02:33:37;;;;;;;4.65;3.88;;;3.50;99.90;;;;;;5095973;28;20206;-59
2020/12/31 02:36:05;;;;;;;8.55;5.60;;;3.40;99.90;;;;;;5096236;28;20218;-58
2020/12/31 02:38:32;;;;;;;6.68;4.88;;;3.40;99.90;;;;;;5095991;28;20183;-61
2020/12/31 02:41:00;;;;;;;6.13;4.60;;;3.40;99.90;;;;;;5096576;28;20215;-57
2020/12/31 02:43:27;;;;;;;6.55;5.05;;;3.50;99.90;;;;;;5097824;28;20179;-57
2020/12/31 02:45:54;;;;;;;4.95;4.05;;;3.50;99.90;;;;;;5098218;28;20184;-58
2020/12/31 02:48:21;;;;;;;5.50;4.82;;;3.60;99.90;;;;;;5098454;28;20191;-56
2020/12/31 02:50:48;;;;;;;7.30;4.25;;;3.50;99.90;;;;;;5093067;28;20587;-59
2020/12/31 02:53:15;;;;;;;5.75;3.85;;;3.60;99.90;;;;;;5093034;28;20192;-58
2020/12/31 02:55:42;;;;;;;5.50;3.70;;;3.50;99.90;;;;;;5093674;28;20179;-59
2020/12/31 02:58:11;;;;;;;8.68;5.50;;;3.40;99.90;;;;;;5093170;28;20198;-59
2020/12/31 03:00:38;;;;;;;7.65;5.97;;;3.50;99.90;;;;;;5092547;28;20769;-58
2020/12/31 03:03:06;;;;;;;6.05;5.40;;;3.40;99.90;;;;;;5075365;28;20195;-61
2020/12/31 03:05:33;;;;;;;11.02;4.15;;;3.40;99.90;;;;;;5093520;28;20600;-60
2020/12/31 03:08:00;;;;;;;11.00;5.55;;;3.40;99.90;;;;;;5093337;28;20697;-60
2020/12/31 03:10:27;;;;;;;6.75;4.93;;;3.50;99.90;;;;;;5093168;28;20211;-58
2020/12/31 03:12:55;;;;;;;7.30;4.82;;;3.50;99.90;;;;;;5092931;28;20310;-60
2020/12/31 03:15:23;;;;;;;6.10;5.00;;;3.50;99.90;;;;;;5095753;28;20215;-60
2020/12/31 03:17:50;;;;;;;4.95;4.45;;;3.50;99.90;;;;;;5112669;28;20178;-55
2020/12/31 03:20:18;;;;;;;4.80;3.65;;;3.50;99.90;;;;;;5112489;28;20208;-58
2020/12/31 03:22:45;;;;;;;7.53;3.67;;;3.50;99.90;;;;;;5112500;28;20259;-59
2020/12/31 03:25:12;;;;;;;5.65;4.13;;;3.40;99.90;;;;;;5112498;28;20170;-59
2020/12/31 03:27:39;;;;;;;4.70;4.30;;;3.40;99.90;;;;;;5112148;28;20652;-53
2020/12/31 03:30:07;;;;;;;5.72;4.80;;;3.40;99.90;;;;;;5094287;28;20214;-59
2020/12/31 03:32:35;;;;;;;4.38;4.03;;;3.50;99.90;;;;;;5112392;28;20179;-59
2020/12/31 03:35:03;;;;;;;5.40;4.05;;;3.50;99.90;;;;;;5112432;28;20233;-57
2020/12/31 03:37:30;;;;;;;10.10;5.65;;;3.50;99.90;;;;;;5112391;28;20171;-59
2020/12/31 03:39:57;;;;;;;8.25;5.63;;;3.50;99.90;;;;;;5112498;28;20236;-59
2020/12/31 03:42:24;;;;;;;8.55;5.43;;;3.50;99.90;;;;;;5112657;28;20187;-58
2020/12/31 03:44:51;;;;;;;7.07;4.72;;;3.50;99.90;;;;;;5112536;28;20190;-61
2020/12/31 03:47:19;;;;;;;5.53;4.15;;;3.50;99.90;;;;;;5112106;28;20190;-58
2020/12/31 03:49:46;;;;;;;7.28;4.43;;;3.50;99.90;;;;;;5112035;28;20211;-58
2020/12/31 03:52:14;;;;;;;5.75;5.15;;;3.50;99.90;;;;;;5111789;28;20178;-58
2020/12/31 03:54:41;;;;;;;4.85;4.35;;;3.50;99.90;;;;;;5111467;28;20202;-58
2020/12/31 03:57:08;;;;;;;3.90;3.47;;;3.50;99.90;;;;;;5111728;28;20171;-59
2020/12/31 03:59:35;;;;;;;8.23;4.30;;;3.50;99.90;;;;;;5111942;28;20203;-59
2020/12/31 04:02:02;;;;;;;6.22;3.70;;;3.50;99.90;;;;;;5111762;28;20200;-59
2020/12/31 04:04:29;;;;;;;8.02;4.50;;;3.40;99.90;;;;;;5111921;28;20434;-59
2020/12/31 04:06:57;;;;;;;7.25;3.78;;;3.40;99.90;;;;;;5111996;28;20179;-54
2020/12/31 04:09:24;;;;;;;5.45;3.65;;;3.40;99.90;;;;;;5112002;28;20207;-61
2020/12/31 04:11:51;;;;;;;4.28;3.17;;;3.40;99.90;;;;;;5111630;28;20191;-57
2020/12/31 04:14:18;;;;;;;5.65;5.15;;;3.30;99.90;;;;;;5111869;28;20610;-55
2020/12/31 04:16:46;;;;;;;4.97;4.32;;;3.30;99.90;;;;;;5111729;28;20544;-59
2020/12/31 04:19:13;;;;;;;6.60;5.00;;;3.30;99.90;;;;;;5111758;28;20187;-57
2020/12/31 04:21:40;;;;;;;8.88;3.97;;;3.20;99.90;;;;;;5111632;28;20194;-60
2020/12/31 04:24:08;;;;;;;4.95;3.55;;;3.10;99.90;;;;;;5111504;28;20567;-55
2020/12/31 04:26:35;;;;;;;4.05;3.30;;;3.10;99.90;;;;;;5111282;28;20658;-57
2020/12/31 04:29:03;;;;;;;4.80;4.13;;;3.20;99.90;;;;;;5111515;28;20216;-55
2020/12/31 04:31:30;;;;;;;8.10;4.68;;;3.20;99.90;;;;;;5092931;28;20615;-58
2020/12/31 04:33:58;;;;;;;4.78;3.95;;;3.20;99.90;;;;;;5111033;28;20230;-56
2020/12/31 04:36:25;;;;;;;6.47;5.13;;;3.30;99.90;;;;;;5112969;28;20183;-59
2020/12/31 04:38:52;;;;;;;5.63;4.70;;;3.20;99.90;;;;;;5111079;28;20183;-60
2020/12/31 04:41:21;;;;;;;5.75;3.85;;;3.30;99.90;;;;;;5111580;28;20257;-58
2020/12/31 04:43:50;;;;;;;5.30;3.80;;;3.30;99.90;;;;;;5120175;27;20193;-56
2020/12/31 04:46:21;;;;;;;7.80;3.83;;;3.30;99.90;;;;;;5111338;28;20187;-53
2020/12/31 04:48:56;;;;;;;8.10;5.65;;;3.30;99.90;;;;;;5111418;28;20213;-58
2020/12/31 04:51:26;;;;;;;6.43;3.75;;;3.30;99.90;;;;;;5111196;28;20227;-58
2020/12/31 04:53:55;;;;;;;4.03;3.63;;;3.20;99.90;;;;;;5111113;28;20199;-55
2020/12/31 04:56:26;;;;;;;6.32;4.75;;;3.30;99.90;;;;;;5111506;28;20175;-56
2020/12/31 04:58:54;;;;;;;8.77;4.80;;;3.30;99.90;;;;;;5111282;28;20171;-55
2020/12/31 05:01:21;;;;;;;9.48;4.72;;;3.20;99.90;;;;;;5111340;28;20191;-58
2020/12/31 05:03:49;;;;;;;6.03;4.85;;;3.20;99.90;;;;;;5111154;28;20674;-59
2020/12/31 05:06:18;;;;;;;8.80;4.45;;;3.20;99.90;;;;;;5111406;28;20277;-54
2020/12/31 05:08:46;;;;;;;5.13;3.50;;;3.20;99.90;;;;;;5110952;28;20171;-57
2020/12/31 05:11:13;;;;;;;5.05;4.00;;;3.20;99.90;;;;;;5111476;28;20620;-60
2020/12/31 05:13:45;;;;;;;7.05;4.60;;;3.20;99.90;;;;;;5092962;28;20212;-55
2020/12/31 05:16:13;;;;;;;10.15;5.03;;;3.10;99.90;;;;;;5111272;28;20202;-57
2020/12/31 05:18:41;;;;;;;7.45;4.85;;;3.10;99.90;;;;;;5111407;28;20244;-57
2020/12/31 05:21:15;;;;;;;8.85;5.05;;;3.10;99.90;;;;;;5111790;28;20210;-58
2020/12/31 05:23:44;;;;;;;10.43;4.70;;;3.00;99.90;;;;;;5111702;28;20186;-57
2020/12/31 05:26:27;;;;;;;6.38;4.50;;;3.00;99.90;;;;;;5111804;28;20191;-58
2020/12/31 05:28:55;;;;;;;6.32;5.38;;;3.00;99.90;;;;;;5111282;28;20700;-55
2020/12/31 05:31:22;;;;;;;6.15;3.70;;;3.10;99.90;;;;;;5111288;28;20175;-57
2020/12/31 05:33:54;;;;;;;7.82;5.03;;;3.00;99.90;;;;;;5111001;28;20269;-58
2020/12/31 05:36:22;;;;;;;8.48;5.00;;;3.00;99.90;;;;;;5111183;28;20186;-58
2020/12/31 05:39:05;;;;;;;5.88;4.78;;;3.00;99.90;;;;;;5110892;28;20261;-52
2020/12/31 05:41:34;;;;;;;9.73;6.15;;;2.90;99.90;;;;;;5111375;28;20175;-56
2020/12/31 05:44:05;;;;;;;6.57;4.65;;;2.90;99.90;;;;;;5111021;28;20240;-59
2020/12/31 05:46:33;;;;;;;11.70;5.68;;;2.80;99.90;;;;;;5111014;28;20179;-61
2020/12/31 05:49:02;;;;;;;7.53;4.88;;;2.80;99.90;;;;;;5113936;28;20265;-59
2020/12/31 05:51:30;;;;;;;5.55;3.75;;;2.80;99.90;;;;;;5114965;28;20283;-56
2020/12/31 05:54:06;;;;;;;7.80;5.60;;;2.80;99.90;;;;;;5114374;28;20202;-58
2020/12/31 05:56:34;;;;;;;6.70;4.00;;;2.80;99.90;;;;;;5114645;28;20265;-59
2020/12/31 05:59:21;;;;;;;5.05;3.30;;;2.70;99.90;;;;;;5114387;28;20187;-56
2020/12/31 06:01:55;;;;;;;6.13;3.95;;;2.70;99.90;;;;;;5096422;28;20183;-59
2020/12/31 06:04:46;;;;;;;7.30;4.20;;;2.60;99.90;;;;;;5114955;28;20257;-60
2020/12/31 06:07:29;;;;;;;4.32;3.45;;;2.60;99.90;;;;;;5114599;28;20265;-54
2020/12/31 06:10:03;;;;;;;3.85;2.75;;;2.50;99.90;;;;;;5114426;28;20220;-59
2020/12/31 06:12:46;;;;;;;6.25;4.43;;;2.50;99.90;;;;;;5096292;28;20190;-61
2020/12/31 06:15:18;;;;;;;4.72;3.17;;;2.30;99.90;;;;;;5114150;28;20201;-59
2020/12/31 06:17:46;;;;;;;5.70;4.20;;;2.30;99.90;;;;;;5114699;28;20175;-58
2020/12/31 06:20:15;;;;;;;4.00;2.75;;;2.20;99.90;;;;;;5095966;28;20583;-60
2020/12/31 06:23:09;;;;;;;9.70;5.38;;;2.10;99.90;;;;;;5114275;28;20541;-59
2020/12/31 06:25:44;;;;;;;4.60;4.18;;;2.10;99.90;;;;;;5114418;28;20179;-58
2020/12/31 06:28:16;;;;;;;6.20;3.15;;;2.00;99.90;;;;;;5114639;28;20189;-59
2020/12/31 06:30:46;;;;;;;5.00;3.28;;;1.90;99.90;;;;;;5114823;28;20206;-58
2020/12/31 06:33:21;;;;;;;7.78;4.90;;;2.00;99.90;;;;;;5114520;28;20178;-55
2020/12/31 06:35:54;;;;;;;5.03;3.25;;;2.20;99.90;;;;;;5114271;28;20195;-57
2020/12/31 06:38:29;;;;;;;4.07;3.25;;;2.20;99.90;;;;;;5113832;28;20170;-56
2020/12/31 06:40:56;;;;;;;5.13;4.60;;;2.20;99.90;;;;;;5114103;28;20206;-58
2020/12/31 06:43:34;;;;;;;7.53;4.60;;;2.20;99.90;;;;;;5113881;28;20239;-58
2020/12/31 06:46:16;;;;;;;11.85;4.20;;;2.20;99.90;;;;;;5113938;28;20171;-60
2020/12/31 06:48:43;;;;;;;11.35;4.43;;;2.20;99.90;;;;;;5114093;28;20257;-59
2020/12/31 06:51:11;;;;;;;5.40;3.83;;;2.30;99.90;;;;;;5113617;28;20224;-61
2020/12/31 06:53:44;;;;;;;6.85;4.70;;;2.20;99.90;;;;;;5114752;28;20244;-60
2020/12/31 06:56:12;;;;;;;6.95;5.60;;;2.10;99.90;;;;;;5114260;28;20182;-60
2020/12/31 06:58:40;;;;;;;7.45;4.68;;;2.10;99.90;;;;;;5095479;28;20206;-60
2020/12/31 07:01:23;;;;;;;6.43;3.60;;;2.10;99.90;;;;;;5114612;28;20851;-58
2020/12/31 07:03:51;;;;;;;6.32;2.70;;;2.10;99.90;;;;;;5114284;28;20193;-60
2020/12/31 07:06:32;;;;;;;7.72;4.57;;;2.10;99.90;;;;;;5113744;28;20258;-59
2020/12/31 07:09:02;;;;;;;7.75;3.72;;;2.10;99.90;;;;;;5113294;28;20497;-60
2020/12/31 07:11:35;;;;;;;9.75;5.20;;;2.10;99.90;;;;;;5113505;28;20549;-59
2020/12/31 07:14:20;;;;;;;6.88;4.65;;;2.20;99.90;;;;;;5113383;28;20186;-58
2020/12/31 07:17:00;;;;;;;7.60;3.20;;;2.10;99.90;;;;;;5113114;28;20191;-58
2020/12/31 07:19:34;;;;;;;8.82;4.75;;;2.10;99.90;;;;;;5113446;28;20232;-61
2020/12/31 07:22:08;;;;;;;6.15;3.90;;;2.00;99.90;;;;;;5113310;28;20171;-60
2020/12/31 07:24:35;;;;;;;9.13;6.03;;;1.90;99.90;;;;;;5113432;28;20186;-58
2020/12/31 07:27:03;;;;;;;13.75;4.88;;;1.90;99.90;;;;;;5112971;28;20269;-60
2020/12/31 07:29:32;;;;;;;7.72;3.70;;;1.80;99.90;;;;;;5113035;28;20398;-61
2020/12/31 07:32:01;;;;;;;10.60;6.70;;;1.80;99.90;;;;;;5112905;28;20273;-60
2020/12/31 07:34:30;;;;;;;6.68;4.25;;;1.80;99.90;;;;;;5113113;28;20608;-60
2020/12/31 07:37:03;;;;;;;6.40;4.10;;;1.80;99.90;;;;;;5112972;28;20194;-61
2020/12/31 07:39:32;;;;;;;5.72;5.00;;;1.70;99.90;;;;;;5114170;27;20221;-56
2020/12/31 07:42:09;;;;;;;12.68;6.45;;;1.70;99.90;;;;;;5113665;27;20187;-62
2020/12/31 07:44:47;;;;;;;6.50;4.13;;;1.70;99.90;;;;;;5094605;28;20186;-62
2020/12/31 07:47:16;;;;;;;8.40;4.95;;;1.70;99.90;;;;;;5112916;28;20235;-62
2020/12/31 07:49:45;;;;;;;11.82;5.60;;;1.70;99.90;;;;;;5112932;28;20263;-60
2020/12/31 07:52:12;;;;;;;5.95;5.40;;;1.70;99.90;;;;;;5112642;28;20186;-59
2020/12/31 07:54:39;;;;;;;5.25;3.95;;;1.70;99.90;;;;;;5113030;28;20686;-60
2020/12/31 07:57:10;;;;;;;7.13;4.47;;;1.80;99.90;;;;;;5112945;28;20210;-58
2020/12/31 07:59:41;;;;;;;6.20;4.35;;;1.80;99.90;;;;;;5112687;28;20209;-58
2020/12/31 08:02:08;;;;;;;6.78;6.07;;;1.90;99.90;;;;;;5112520;28;20179;-56
2020/12/31 08:04:36;;;;;;;5.35;4.10;;;1.90;99.90;;;;;;5113092;28;20186;-59
2020/12/31 08:07:04;;;;;;;8.00;5.43;;;2.00;99.90;;;;;;5112019;28;20186;-59
2020/12/31 08:09:32;;;;;;;5.72;3.80;;;2.00;99.90;;;;;;5094116;28;20219;-60
2020/12/31 08:11:59;;;;;;;14.60;4.60;;;2.00;99.90;;;;;;5111663;28;20186;-60
2020/12/31 08:14:27;;;;;;;4.50;4.05;;;2.00;99.90;;;;;;5112477;28;20569;-58
2020/12/31 08:17:01;;;;;;;7.57;4.63;;;2.10;99.90;;;;;;5096426;22;20228;-62
2020/12/31 08:19:31;;;;;;;4.32;3.95;;;2.20;99.90;;;;;;5071416;28;20241;-58
2020/12/31 08:22:08;;;;;;;7.75;4.55;;;2.20;99.90;;;;;;5071722;28;20173;-61
2020/12/31 08:24:38;;;;;;;6.50;4.72;;;2.20;99.90;;;;;;5071140;28;20186;-62
2020/12/31 08:27:06;;;;;;;4.30;3.75;;;2.30;99.90;;;;;;5071075;28;20184;-60
2020/12/31 08:29:34;;;;;;;5.05;3.30;;;2.30;99.90;;;;;;5071210;28;20212;-61
2020/12/31 08:32:05;;;;;;;2.70;2.50;;;2.40;99.90;;;;;;5071718;28;20672;-63
2020/12/31 08:34:37;;;;;;;6.07;4.15;;;2.50;99.90;;;;;;5071403;28;20192;-62
2020/12/31 08:37:07;;;;;;;6.05;4.60;;;2.60;99.90;;;;;;5071442;28;20173;-60
2020/12/31 08:39:34;;;;;;;6.47;4.40;;;2.70;99.90;;;;;;5071218;28;20298;-63
2020/12/31 08:42:02;;;;;;;6.18;4.53;;;2.80;99.90;;;;;;5070838;28;20187;-62
2020/12/31 08:44:29;;;;;;;7.72;3.88;;;3.00;99.90;;;;;;5071222;28;20176;-60
2020/12/31 08:46:56;;;;;;;4.03;3.58;;;3.10;99.90;;;;;;5070895;28;20249;-57
2020/12/31 08:49:24;;;;;;;5.43;4.57;;;3.20;99.90;;;;;;5071032;28;20299;-57
2020/12/31 08:51:52;;;;;;;8.75;3.75;;;3.30;99.90;;;;;;5053197;28;20207;-63
2020/12/31 08:54:20;;;;;;;3.72;3.25;;;3.40;99.90;;;;;;5070979;28;20192;-60
2020/12/31 08:56:47;;;;;;;4.13;3.45;;;3.50;99.90;;;;;;5071106;28;20183;-59
2020/12/31 08:59:15;;;;;;;5.18;3.67;;;3.50;99.90;;;;;;5071082;28;20186;-61
2020/12/31 09:01:43;;;;;;;3.90;3.00;;;3.60;99.90;;;;;;5070982;28;20556;-58
2020/12/31 09:04:13;;;;;;;6.30;3.80;;;3.50;99.90;;;;;;5070551;28;20173;-61
2020/12/31 09:06:42;;;;;;;7.28;5.38;;;3.40;99.90;;;;;;5070791;28;20188;-61
2020/12/31 09:09:16;;;;;;;4.45;2.95;;;3.50;99.90;;;;;;5071008;28;20629;-61
2020/12/31 09:11:55;;;;;;;4.97;4.07;;;3.60;99.90;;;;;;5070597;28;20195;-59
2020/12/31 09:14:22;;;;;;;4.00;3.45;;;3.60;99.90;;;;;;5070829;28;20187;-61
2020/12/31 09:16:49;;;;;;;4.88;4.25;;;3.60;99.90;;;;;;5070937;28;20201;-61
2020/12/31 09:19:17;;;;;;;8.70;4.25;;;3.70;99.90;;;;;;5070804;28;20702;-61
2020/12/31 09:21:44;;;;;;;8.07;4.20;;;3.70;99.90;;;;;;5071674;28;20191;-59
2020/12/31 09:24:14;;;;;;;9.10;4.18;;;3.80;99.90;;;;;;5074669;28;20176;-60
2020/12/31 09:26:52;;;;;;;6.97;4.00;;;3.80;99.90;;;;;;5074575;28;20211;-62
2020/12/31 09:29:20;;;;;;;7.15;3.55;;;3.80;99.90;;;;;;5074601;28;20203;-60
2020/12/31 09:31:47;;;;;;;4.60;3.40;;;3.80;99.90;;;;;;5074943;28;20184;-61
2020/12/31 09:34:15;;;;;;;3.65;3.35;;;3.90;99.90;;;;;;5075084;28;20633;-58
2020/12/31 09:36:42;;;;;;;6.50;3.95;;;4.00;99.90;;;;;;5074732;28;20207;-63
2020/12/31 09:39:09;;;;;;;5.95;4.70;;;4.10;99.90;;;;;;5074395;28;20223;-63
2020/12/31 09:41:38;;;;;;;4.47;3.42;;;4.10;99.90;;;;;;5056746;28;20555;-57
2020/12/31 09:44:06;;;;;;;7.50;4.82;;;4.00;99.90;;;;;;5074583;28;20219;-62
2020/12/31 09:46:33;;;;;;;5.30;3.92;;;4.00;99.90;;;;;;5074382;28;20595;-65
2020/12/31 09:49:00;;;;;;;5.05;3.92;;;4.00;99.90;;;;;;5055709;28;20570;-60
2020/12/31 09:51:28;;;;;;;6.50;4.20;;;4.00;99.90;;;;;;5074283;28;20263;-58
2020/12/31 09:53:55;;;;;;;3.38;2.92;;;4.00;99.90;;;;;;5074309;28;20258;-53
2020/12/31 09:56:28;;;;;;;5.45;4.28;;;4.10;99.90;;;;;;5074303;28;20196;-62
2020/12/31 09:58:55;;;;;;;3.65;3.30;;;4.20;99.90;;;;;;5074028;28;20208;-64
2020/12/31 10:01:23;;;;;;;3.78;3.22;;;4.30;99.90;;;;;;5073924;28;20660;-62
2020/12/31 10:03:50;;;;;;;5.05;3.90;;;4.30;99.90;;;;;;5055956;28;20563;-59
2020/12/31 10:06:18;;;;;;;4.32;3.50;;;4.30;99.90;;;;;;5073729;28;20183;-61
2020/12/31 10:08:49;;;;;;;5.28;4.32;;;4.40;99.90;;;;;;5073944;28;20292;-58
2020/12/31 10:11:17;;;;;;;4.80;4.30;;;4.40;99.90;;;;;;5073757;28;20578;-57
2020/12/31 10:13:44;;;;;;;3.65;3.20;;;4.40;99.90;;;;;;5074112;28;20187;-62
2020/12/31 10:16:11;;;;;;;13.57;4.70;;;4.50;99.90;;;;;;5081843;28;20370;-61
2020/12/31 10:18:39;;;;;;;5.22;4.35;;;4.50;99.90;;;;;;5094018;28;20180;-55
2020/12/31 10:21:07;;;;;;;6.82;4.50;;;4.70;99.90;;;;;;5094158;28;20215;-54
2020/12/31 10:23:34;;;;;;;5.13;3.30;;;4.80;99.90;;;;;;5093868;28;20187;-61
2020/12/31 10:26:02;;;;;;;5.03;3.10;;;4.80;99.90;;;;;;5093926;28;20580;-59
2020/12/31 10:28:29;;;;;;;6.70;4.70;;;4.90;99.90;;;;;;5093863;28;20266;-58
2020/12/31 10:30:58;;;;;;;5.03;4.10;;;5.00;99.90;;;;;;5075398;28;20717;-61
2020/12/31 10:33:26;;;;;;;4.82;3.15;;;4.90;99.90;;;;;;5092762;28;20191;-58
2020/12/31 10:35:54;;;;;;;2.92;2.67;;;5.10;99.90;;;;;;5093475;28;20573;-63
2020/12/31 10:38:21;;;;;;;6.45;2.85;;;5.10;99.90;;;;;;5075048;28;20194;-58
2020/12/31 10:40:48;;;;;;;4.32;3.15;;;5.10;99.90;;;;;;5093998;28;20225;-56
2020/12/31 10:43:15;;;;;;;4.30;3.25;;;5.20;99.90;;;;;;5093594;28;20263;-60
2020/12/31 10:45:42;;;;;;;4.22;3.58;;;5.10;99.90;;;;;;5093379;28;20203;-58
2020/12/31 10:48:12;;;;;;;5.10;3.58;;;5.00;99.90;;;;;;5093209;28;20179;-60
2020/12/31 10:50:39;;;;;;;4.95;3.80;;;5.00;99.90;;;;;;5093500;28;20235;-61
2020/12/31 10:53:08;;;;;;;2.92;2.63;;;5.00;99.90;;;;;;5094140;28;20261;-59
2020/12/31 10:55:35;;;;;;;2.10;1.90;;;5.20;99.90;;;;;;5109947;28;20209;-59
2020/12/31 10:58:04;;;;;;;7.55;3.42;;;5.10;99.90;;;;;;5113287;28;20186;-55
2020/12/31 11:00:32;;;;;;;4.25;3.10;;;5.10;99.90;;;;;;5094408;28;20215;-58
2020/12/31 11:03:00;;;;;;;3.70;2.63;;;5.10;99.90;;;;;;5093155;28;20206;-60
2020/12/31 11:05:27;;;;;;;4.90;3.03;;;5.20;99.90;;;;;;5093043;28;20179;-63
2020/12/31 11:07:54;;;;;;;3.92;2.28;;;5.30;99.90;;;;;;5090234;28;20694;-56
2020/12/31 11:10:22;;;;;;;3.80;3.25;;;5.30;99.90;;;;;;5093141;28;20217;-61
2020/12/31 11:12:49;;;;;;;3.85;3.45;;;5.40;99.90;;;;;;5092668;28;20205;-60
2020/12/31 11:15:16;;;;;;;5.82;2.65;;;5.40;99.90;;;;;;5092095;28;20214;-59
2020/12/31 11:17:43;;;;;;;3.92;3.55;;;5.40;99.90;;;;;;5077728;28;20656;-58
2020/12/31 11:20:11;;;;;;;4.93;2.90;;;5.40;99.90;;;;;;5087982;28;20755;-59
2020/12/31 11:22:38;;;;;;;5.20;2.45;;;5.40;99.90;;;;;;5072497;28;20184;-59
2020/12/31 11:25:05;;;;;;;4.57;3.00;;;5.50;99.90;;;;;;5073804;28;20184;-63
2020/12/31 11:27:33;;;;;;;3.97;3.45;;;5.60;99.90;;;;;;5073981;28;20229;-64
2020/12/31 11:30:00;;;;;;;4.30;2.85;;;5.60;99.90;;;;;;5071624;28;20207;-64
2020/12/31 11:32:27;;;;;;;3.60;3.17;;;5.70;99.90;;;;;;5073782;28;20230;-63
2020/12/31 11:34:54;;;;;;;5.90;4.13;;;5.80;99.90;;;;;;5073848;28;20200;-64
2020/12/31 11:37:22;;;;;;;4.78;3.90;;;5.80;99.90;;;;;;5074014;28;20184;-64
2020/12/31 11:39:49;;;;;;;5.15;4.00;;;5.90;99.90;;;;;;5073769;28;20598;-64
2020/12/31 11:42:16;;;;;;;3.47;3.10;;;5.70;99.90;;;;;;5073836;28;20194;-63
2020/12/31 11:44:44;;;;;;;3.55;3.25;;;5.60;99.90;;;;;;5073835;28;20185;-64
2020/12/31 11:47:11;;;;;;;5.18;3.75;;;5.50;99.90;;;;;;5073820;28;20180;-64
2020/12/31 11:49:38;;;;;;;4.97;3.45;;;5.40;99.90;;;;;;5073824;28;20294;-65
2020/12/31 11:52:05;;;;;;;4.95;3.65;;;5.50;99.90;;;;;;5074010;28;20177;-64
2020/12/31 11:54:32;;;;;;;4.47;2.95;;;5.70;99.90;;;;;;5073303;28;20629;-64
2020/12/31 11:56:59;;;;;;;3.50;1.90;;;5.70;99.90;;;;;;5073057;28;20231;-62
2020/12/31 11:59:26;;;;;;;3.15;2.75;;;5.60;99.90;;;;;;5071917;28;20199;-61
2020/12/31 12:01:54;;;;;;;4.40;2.85;;;5.50;99.90;;;;;;5072477;28;20539;-56
2020/12/31 12:04:22;;;;;;;5.85;3.85;;;5.50;99.90;;;;;;5072373;28;20647;-61
2020/12/31 12:06:52;;;;;;;3.70;2.35;;;5.60;99.90;;;;;;5072926;28;20160;-63
2020/12/31 12:09:19;;;;;;;4.35;3.75;;;5.60;99.90;;;;;;5072633;28;20216;-62
2020/12/31 12:11:47;;;;;;;3.58;2.95;;;5.70;99.90;;;;;;5072537;28;20725;-62
2020/12/31 12:14:14;;;;;;;6.47;4.22;;;5.70;99.90;;;;;;5072317;28;20671;-60
2020/12/31 12:16:42;;;;;;;4.20;3.65;;;5.60;99.90;;;;;;5084948;28;20214;-57
2020/12/31 12:19:11;;;;;;;3.55;3.25;;;5.60;99.90;;;;;;5093187;28;20554;-57
2020/12/31 12:21:38;;;;;;;3.35;3.05;;;5.40;99.90;;;;;;5092752;28;20194;-61
2020/12/31 12:24:07;;;;;;;6.55;4.13;;;5.30;99.90;;;;;;5093426;28;20175;-60
2020/12/31 12:26:35;;;;;;;4.22;3.50;;;5.20;99.90;;;;;;5092887;28;20263;-61
2020/12/31 12:29:03;;;;;;;4.40;3.03;;;5.20;99.90;;;;;;5092950;28;20631;-60
2020/12/31 12:31:32;;;;;;;4.45;3.45;;;5.20;99.90;;;;;;5092645;28;20333;-62
2020/12/31 12:34:00;;;;;;;5.28;3.42;;;5.10;99.90;;;;;;5092369;28;20258;-58
2020/12/31 12:36:28;;;;;;;6.82;4.82;;;5.10;99.90;;;;;;5074457;28;20577;-61
2020/12/31 12:38:56;;;;;;;8.48;2.90;;;5.20;99.90;;;;;;5092486;28;20203;-61
2020/12/31 12:41:24;;;;;;;3.20;2.58;;;5.10;99.90;;;;;;5092734;28;20583;-62
2020/12/31 12:43:51;;;;;;;4.93;3.88;;;5.20;99.90;;;;;;5092545;28;20184;-63
2020/12/31 12:46:19;;;;;;;4.30;3.30;;;5.10;99.90;;;;;;5092487;28;20171;-60
2020/12/31 12:48:47;;;;;;;4.40;2.78;;;5.20;99.90;;;;;;5092312;28;20464;-61
2020/12/31 12:51:15;;;;;;;5.03;4.10;;;5.20;99.90;;;;;;5092166;28;20215;-60
2020/12/31 12:53:43;;;;;;;5.10;3.38;;;5.30;99.90;;;;;;5092390;28;20194;-62
2020/12/31 12:56:11;;;;;;;4.82;3.00;;;5.30;99.90;;;;;;5091832;28;20694;-58
2020/12/31 12:58:39;;;;;;;2.60;2.38;;;5.30;99.90;;;;;;5073949;28;20274;-62
2020/12/31 13:01:06;;;;;;;4.03;3.45;;;5.30;99.90;;;;;;5091877;28;20218;-58
2020/12/31 13:03:33;;;;;;;3.60;3.22;;;5.30;99.90;;;;;;5091867;28;20187;-56
2020/12/31 13:06:01;;;;;;;6.13;3.97;;;5.30;99.90;;;;;;5074177;28;20637;-62